createdAt,value
2022-12-17T00:00:23.155Z,33.3
2022-12-17T00:06:39.938Z,33.3
2022-12-17T00:13:03.071Z,34.6
2022-12-17T00:19:22.951Z,34.6
2022-12-17T00:25:45.974Z,31
2022-12-17T00:32:05.930Z,31
2022-12-17T00:38:29.046Z,66.8
2022-12-17T00:44:48.971Z,66.8
2022-12-17T00:51:12.084Z,60.9
2022-12-17T00:57:32.004Z,60.9
2022-12-17T01:03:54.959Z,33.6
2022-12-17T01:10:14.998Z,33.6
2022-12-17T01:16:38.050Z,34.4
2022-12-17T01:22:57.906Z,34.4
2022-12-17T01:29:21.167Z,30.7
2022-12-17T01:35:40.988Z,30.7
2022-12-17T01:42:03.983Z,32.8
2022-12-17T01:48:24.047Z,32.8
2022-12-17T01:54:47.000Z,42.9
2022-12-17T02:01:07.101Z,42.9
2022-12-17T02:07:29.985Z,29.9
2022-12-17T02:13:49.907Z,29.9
2022-12-17T02:20:12.981Z,22.3
2022-12-17T02:26:32.983Z,22.3
2022-12-17T02:32:56.008Z,24.5
2022-12-17T02:39:15.924Z,24.5
2022-12-17T02:45:39.045Z,35.5
2022-12-17T02:51:58.953Z,35.5
2022-12-17T02:58:21.961Z,30
2022-12-17T03:04:41.899Z,30
2022-12-17T03:11:04.964Z,30.5
2022-12-17T03:17:24.982Z,30.5
2022-12-17T03:23:47.947Z,15.9
2022-12-17T03:30:08.031Z,15.9
2022-12-17T03:36:30.939Z,20.6
2022-12-17T03:42:50.908Z,20.6
2022-12-17T03:49:13.957Z,24.9
2022-12-17T03:55:33.973Z,24.9
2022-12-17T04:01:57.148Z,10
2022-12-17T04:25:56.845Z,32.6
2022-12-17T04:32:17.070Z,32.6
2022-12-17T04:38:39.932Z,18
2022-12-17T04:44:59.916Z,18
2022-12-17T04:51:22.970Z,14.2
2022-12-17T04:57:42.933Z,14.2
2022-12-17T05:04:05.995Z,20.4
2022-12-17T05:10:26.126Z,20.4
2022-12-17T05:16:49.975Z,24.7
2022-12-17T05:23:10.203Z,24.7
2022-12-17T05:29:33.237Z,44.5
2022-12-17T05:35:53.117Z,44.5
2022-12-17T05:42:15.980Z,27.7
2022-12-17T05:48:35.969Z,27.7
2022-12-17T05:54:58.994Z,16.7
2022-12-17T06:01:19.025Z,16.7
2022-12-17T06:07:41.920Z,17.4
2022-12-17T06:14:01.938Z,17.4
2022-12-17T06:20:24.921Z,24.1
2022-12-17T06:26:45.103Z,24.1
2022-12-17T06:33:07.897Z,20.8
2022-12-17T06:39:27.929Z,20.8
2022-12-17T06:45:50.967Z,25.4
2022-12-17T06:52:10.898Z,25.4
2022-12-17T06:58:33.978Z,37.8
2022-12-17T07:04:53.887Z,37.8
2022-12-17T07:11:16.957Z,15.3
2022-12-17T07:17:37.119Z,15.3
2022-12-17T07:24:00.041Z,11.6
2022-12-17T07:30:19.946Z,11.6
2022-12-17T07:36:43.016Z,28.5
2022-12-17T07:43:03.193Z,28.5
2022-12-17T07:49:26.395Z,8.3
2022-12-17T07:55:45.988Z,8.3
2022-12-17T08:02:09.396Z,8.4
2022-12-17T08:08:29.044Z,8.4
2022-12-17T08:14:52.129Z,11.8
2022-12-17T08:21:12.090Z,11.8
2022-12-17T08:27:34.892Z,15.3
2022-12-17T08:33:55.010Z,15.3
2022-12-17T08:40:17.970Z,17.2
2022-12-17T08:46:38.107Z,17.2
2022-12-17T08:53:01.024Z,13.1
2022-12-17T08:59:20.909Z,13.1
2022-12-17T09:05:43.943Z,9.6
2022-12-17T09:12:03.988Z,9.6
2022-12-17T09:28:56.741Z,25.6
2022-12-17T09:35:16.945Z,25.6
2022-12-17T09:41:39.970Z,25.6
2022-12-17T09:48:00.001Z,25.6
2022-12-17T09:54:22.935Z,12
2022-12-17T10:00:42.940Z,12
2022-12-17T10:07:06.027Z,21.3
2022-12-17T10:13:25.942Z,21.3
2022-12-17T10:19:48.984Z,9.1
2022-12-17T10:26:08.965Z,9.1
2022-12-17T10:32:31.975Z,7.1
2022-12-17T10:38:51.929Z,7.1
2022-12-17T10:45:14.927Z,24.6
2022-12-17T10:51:34.933Z,24.6
2022-12-17T10:57:57.952Z,15.1
2022-12-17T11:04:18.094Z,15.1
2022-12-17T11:10:40.967Z,22.3
2022-12-17T11:17:00.993Z,22.3
2022-12-17T11:23:24.003Z,11.9
2022-12-17T11:29:44.058Z,11.9
2022-12-17T11:36:07.120Z,11.5
2022-12-17T11:42:26.944Z,11.5
2022-12-17T11:48:49.908Z,17.9
2022-12-17T11:55:09.941Z,17.9
2022-12-17T12:01:33.011Z,12.8
2022-12-17T12:07:52.966Z,12.8
2022-12-17T12:14:16.009Z,12.2
2022-12-17T12:20:36.188Z,12.2
2022-12-17T12:26:58.929Z,16
2022-12-17T12:33:19.067Z,16
2022-12-17T12:39:42.109Z,9.4
2022-12-17T12:46:02.085Z,9.4
2022-12-17T12:52:25.011Z,21.2
2022-12-17T12:58:44.988Z,21.2
2022-12-17T13:05:07.930Z,14.4
2022-12-17T13:11:28.087Z,14.4
2022-12-17T13:17:51.060Z,15.7
2022-12-17T13:24:11.062Z,15.7
2022-12-17T13:30:33.916Z,14.4
2022-12-17T13:36:54.073Z,14.4
2022-12-17T13:43:17.014Z,21.3
2022-12-17T13:49:37.110Z,21.3
2022-12-17T13:56:00.033Z,28.4
2022-12-17T14:02:20.002Z,28.4
2022-12-17T14:08:43.002Z,10.5
2022-12-17T14:15:03.319Z,10.5
2022-12-17T14:38:48.081Z,9.6
2022-12-17T14:45:06.896Z,22
2022-12-17T14:51:26.992Z,22
2022-12-17T14:57:49.961Z,22
2022-12-17T15:04:09.948Z,22
2022-12-17T15:10:33.000Z,8.5
2022-12-17T15:16:53.273Z,8.5
2022-12-17T15:23:16.246Z,14.2
2022-12-17T15:29:35.921Z,14.2
2022-12-17T15:35:59.009Z,6.9
2022-12-17T15:42:19.166Z,6.9
2022-12-17T15:48:46.477Z,14.4
2022-12-17T15:55:02.124Z,14.4
2022-12-17T16:01:25.136Z,21.2
2022-12-17T16:07:44.936Z,21.2
2022-12-17T16:14:07.973Z,10.2
2022-12-17T16:20:27.894Z,10.2
2022-12-17T16:26:50.938Z,8.7
2022-12-17T16:33:12.444Z,8.7
2022-12-17T16:39:34.992Z,17.9
2022-12-17T16:45:55.040Z,17.9
2022-12-17T16:52:18.016Z,15.1
2022-12-17T16:58:38.266Z,15.1
2022-12-17T17:05:01.029Z,25
2022-12-17T17:11:20.943Z,25
2022-12-17T17:17:55.225Z,15.6
2022-12-17T17:24:03.900Z,15.6
2022-12-17T17:30:27.019Z,22.5
2022-12-17T17:36:46.977Z,22.5
2022-12-17T17:43:10.029Z,18.8
2022-12-17T17:49:29.971Z,18.8
2022-12-17T17:55:52.911Z,23
2022-12-17T18:02:13.053Z,23
2022-12-17T18:08:36.266Z,31.1
2022-12-17T18:15:16.148Z,31.1
2022-12-17T18:21:19.219Z,31.4
2022-12-17T18:27:38.992Z,31.4
2022-12-17T18:34:02.007Z,12
2022-12-17T18:40:21.895Z,12
2022-12-17T18:46:45.338Z,8.1
2022-12-17T18:53:04.967Z,8.1
2022-12-17T18:59:29.143Z,13.7
2022-12-17T19:05:51.370Z,13.7
2022-12-17T19:12:10.895Z,10.9
2022-12-17T19:18:31.023Z,10.9
2022-12-17T19:43:03.372Z,10.7
2022-12-17T19:49:22.922Z,10.7
2022-12-17T19:55:45.948Z,30.6
2022-12-17T20:02:06.140Z,30.6
2022-12-17T20:08:28.992Z,19.9
2022-12-17T20:14:48.932Z,19.9
2022-12-17T20:21:11.992Z,20.6
2022-12-17T20:27:31.934Z,20.6
2022-12-17T20:33:56.048Z,18.6
2022-12-17T20:40:16.087Z,18.6
2022-12-17T20:46:38.931Z,11.6
2022-12-17T20:52:58.888Z,11.6
2022-12-17T20:59:22.066Z,19.3
2022-12-17T21:05:41.965Z,19.3
2022-12-17T21:12:04.981Z,10.2
2022-12-17T21:18:24.977Z,10.2
2022-12-17T21:24:47.958Z,6.4
2022-12-17T21:31:08.238Z,6.4
2022-12-17T21:37:30.981Z,15
2022-12-17T21:43:50.940Z,15
2022-12-17T21:50:13.917Z,12.6
2022-12-17T21:56:33.931Z,12.6
2022-12-17T22:02:57.286Z,29.9
2022-12-17T22:09:27.072Z,29.9
2022-12-17T22:15:43.152Z,7.8
2022-12-17T22:22:00.072Z,7.8
2022-12-17T22:28:22.941Z,18.3
2022-12-17T22:35:02.276Z,18.3
2022-12-17T22:42:31.546Z,22.1
2022-12-17T22:47:27.706Z,22.1
2022-12-17T22:53:51.645Z,16.3
2022-12-17T23:00:12.028Z,16.3
2022-12-17T23:23:08.995Z,36.5
2022-12-17T23:29:28.904Z,36.5
2022-12-17T23:35:52.097Z,36.5
2022-12-17T23:42:13.035Z,36.5
2022-12-17T23:48:38.434Z,20.8
2022-12-17T23:54:55.950Z,20.8
